createdAt,value
2023-06-04T00:02:17.853Z,2.70
2023-06-04T00:05:05.215Z,2.75
2023-06-04T00:07:53.273Z,3.00
2023-06-04T00:10:41.006Z,2.83
2023-06-04T00:13:28.519Z,2.90
2023-06-04T00:16:15.437Z,2.42
2023-06-04T00:19:03.903Z,2.53
2023-06-04T00:21:51.006Z,2.88
2023-06-04T00:24:39.707Z,2.80
2023-06-04T00:27:26.594Z,2.35
2023-06-04T00:30:13.891Z,2.70
2023-06-04T00:33:02.836Z,2.40
2023-06-04T00:35:49.748Z,2.50
2023-06-04T00:38:36.735Z,2.42
2023-06-04T00:41:23.658Z,3.15
2023-06-04T00:44:10.639Z,2.80
2023-06-04T00:46:57.710Z,3.63
2023-06-04T00:49:44.628Z,2.75
2023-06-04T00:52:31.557Z,2.88
2023-06-04T00:55:19.700Z,3.03
2023-06-04T00:58:06.626Z,3.15
2023-06-04T01:00:57.778Z,2.70
2023-06-04T01:03:50.425Z,3.08
2023-06-04T01:06:40.633Z,2.70
2023-06-04T01:09:29.036Z,2.63
2023-06-04T01:12:16.034Z,2.95
2023-06-04T01:15:02.998Z,2.60
2023-06-04T01:17:54.021Z,3.22
2023-06-04T01:20:47.402Z,2.65
2023-06-04T01:24:02.088Z,3.05
2023-06-04T01:26:51.188Z,3.05
2023-06-04T01:29:38.126Z,3.42
2023-06-04T01:32:26.232Z,2.35
2023-06-04T01:35:13.284Z,2.58
2023-06-04T01:38:00.303Z,2.92
2023-06-04T01:40:48.142Z,3.08
2023-06-04T01:43:36.702Z,3.00
2023-06-04T01:46:25.319Z,2.83
2023-06-04T01:49:12.292Z,2.38
2023-06-04T01:51:59.233Z,2.67
2023-06-04T01:54:46.975Z,3.20
2023-06-04T01:57:35.181Z,2.53
2023-06-04T02:00:22.099Z,2.42
2023-06-04T02:03:09.822Z,2.67
2023-06-04T02:05:56.821Z,2.75
2023-06-04T02:08:43.703Z,3.00
2023-06-04T02:11:30.600Z,2.92
2023-06-04T02:14:17.542Z,2.92
2023-06-04T02:17:05.608Z,2.88
2023-06-04T02:19:52.460Z,3.08
2023-06-04T02:22:39.345Z,3.05
2023-06-04T02:25:26.424Z,3.47
2023-06-04T02:28:14.285Z,3.25
2023-06-04T02:31:01.129Z,2.83
2023-06-04T02:33:48.097Z,3.22
2023-06-04T02:36:35.247Z,3.03
2023-06-04T02:39:22.248Z,3.60
2023-06-04T02:42:09.409Z,2.83
2023-06-04T02:44:56.315Z,3.25
2023-06-04T02:47:43.332Z,2.90
2023-06-04T02:50:30.305Z,3.03
2023-06-04T02:53:17.160Z,3.30
2023-06-04T02:56:04.159Z,3.28
2023-06-04T02:58:56.706Z,3.20
2023-06-04T03:01:44.446Z,3.42
2023-06-04T03:04:35.292Z,2.50
2023-06-04T03:07:23.891Z,2.90
2023-06-04T03:10:11.961Z,3.42
2023-06-04T03:12:58.871Z,3.65
2023-06-04T03:15:47.620Z,3.33
2023-06-04T03:18:34.958Z,3.22
2023-06-04T03:21:21.960Z,3.33
2023-06-04T03:24:08.899Z,3.13
2023-06-04T03:26:55.791Z,3.15
2023-06-04T03:29:42.716Z,3.50
2023-06-04T03:32:29.938Z,3.53
2023-06-04T03:35:17.009Z,2.95
2023-06-04T03:38:04.104Z,4.68
2023-06-04T03:40:51.051Z,2.92
2023-06-04T03:43:37.921Z,3.30
2023-06-04T03:46:30.589Z,3.58
2023-06-04T03:49:19.318Z,2.70
2023-06-04T03:52:06.470Z,3.60
2023-06-04T03:54:53.349Z,3.80
2023-06-04T03:57:40.232Z,3.00
2023-06-04T04:00:27.884Z,3.15
2023-06-04T04:03:14.831Z,3.78
2023-06-04T04:06:01.727Z,2.95
2023-06-04T04:08:49.645Z,3.50
2023-06-04T04:11:36.558Z,3.30
2023-06-04T04:14:23.552Z,3.33
2023-06-04T04:17:10.489Z,3.22
2023-06-04T04:19:57.452Z,3.63
2023-06-04T04:22:44.373Z,3.78
2023-06-04T04:25:33.616Z,3.60
2023-06-04T04:28:21.110Z,3.00
2023-06-04T04:31:09.870Z,3.67
2023-06-04T04:33:57.289Z,3.42
2023-06-04T04:36:45.256Z,3.40
2023-06-04T04:39:32.468Z,3.65
2023-06-04T04:42:21.336Z,4.18
2023-06-04T04:45:09.083Z,4.57
2023-06-04T04:47:56.183Z,4.18
2023-06-04T04:50:43.068Z,3.58
2023-06-04T04:53:29.986Z,3.60
2023-06-04T04:56:16.871Z,3.30
2023-06-04T04:59:03.843Z,3.65
2023-06-04T05:01:50.765Z,3.78
2023-06-04T05:04:37.801Z,3.17
2023-06-04T05:07:26.002Z,3.55
2023-06-04T05:10:13.891Z,3.97
2023-06-04T05:13:06.075Z,3.35
2023-06-04T05:15:55.945Z,2.78
2023-06-04T05:18:45.599Z,3.80
2023-06-04T05:21:32.584Z,3.70
2023-06-04T05:24:19.433Z,4.93
2023-06-04T05:27:06.316Z,3.92
2023-06-04T05:29:53.197Z,3.35
2023-06-04T05:32:42.304Z,3.97
2023-06-04T05:35:29.325Z,3.22
2023-06-04T05:38:26.843Z,3.17
2023-06-04T05:41:13.989Z,4.72
2023-06-04T05:44:00.875Z,3.42
2023-06-04T05:46:47.805Z,3.40
2023-06-04T05:49:35.727Z,3.95
2023-06-04T05:52:22.577Z,2.65
2023-06-04T05:55:10.021Z,3.17
2023-06-04T05:57:56.972Z,3.72
2023-06-04T06:00:43.977Z,3.03
2023-06-04T06:03:31.475Z,3.50
2023-06-04T06:06:19.587Z,3.53
2023-06-04T06:09:06.902Z,3.05
2023-06-04T06:11:53.867Z,3.55
2023-06-04T06:14:41.063Z,3.42
2023-06-04T06:17:28.069Z,4.03
2023-06-04T06:20:18.737Z,3.30
2023-06-04T06:23:09.109Z,2.90
2023-06-04T06:25:56.610Z,2.88
2023-06-04T06:28:44.168Z,3.33
2023-06-04T06:31:31.403Z,3.58
2023-06-04T06:34:18.428Z,2.78
2023-06-04T06:37:05.696Z,3.10
2023-06-04T06:39:52.757Z,3.17
2023-06-04T06:42:39.623Z,3.00
2023-06-04T06:45:26.526Z,3.72
2023-06-04T06:48:13.444Z,2.92
2023-06-04T06:51:00.338Z,3.03
2023-06-04T06:53:47.213Z,3.17
2023-06-04T06:56:34.459Z,3.83
2023-06-04T06:59:21.686Z,3.95
2023-06-04T07:02:08.620Z,3.70
2023-06-04T07:04:55.524Z,2.58
2023-06-04T07:07:42.676Z,2.80
2023-06-04T07:10:31.125Z,3.58
2023-06-04T07:13:18.029Z,2.97
2023-06-04T07:16:05.004Z,3.10
2023-06-04T07:18:51.932Z,3.17
2023-06-04T07:21:38.765Z,2.88
2023-06-04T07:24:25.730Z,2.80
2023-06-04T07:27:15.979Z,3.45
2023-06-04T07:30:02.941Z,3.13
2023-06-04T07:32:50.137Z,3.15
2023-06-04T07:35:37.084Z,3.40
2023-06-04T07:38:26.438Z,2.70
2023-06-04T07:41:13.428Z,3.08
2023-06-04T07:44:00.700Z,3.47
2023-06-04T07:46:47.594Z,3.25
2023-06-04T07:49:34.481Z,3.15
2023-06-04T07:52:21.488Z,3.30
2023-06-04T07:55:09.534Z,2.90
2023-06-04T07:57:56.507Z,3.78
2023-06-04T08:00:43.416Z,3.35
2023-06-04T08:03:30.365Z,3.35
2023-06-04T08:06:17.517Z,3.25
2023-06-04T08:09:04.398Z,3.47
2023-06-04T08:11:51.392Z,3.55
2023-06-04T08:14:38.324Z,3.00
2023-06-04T08:17:25.393Z,3.22
2023-06-04T08:20:12.751Z,3.50
2023-06-04T08:22:59.610Z,2.97
2023-06-04T08:25:46.619Z,3.08
2023-06-04T08:28:33.451Z,3.33
2023-06-04T08:31:21.251Z,3.20
2023-06-04T08:34:08.187Z,3.80
2023-06-04T08:36:55.088Z,3.30
2023-06-04T08:39:42.272Z,3.10
2023-06-04T08:42:32.220Z,3.42
2023-06-04T08:45:21.320Z,3.50
2023-06-04T08:48:13.909Z,2.75
2023-06-04T08:53:51.208Z,3.38
2023-06-04T08:56:38.170Z,3.85
2023-06-04T08:59:26.732Z,4.63
2023-06-04T09:02:16.905Z,3.53
2023-06-04T09:05:09.999Z,2.85
2023-06-04T09:08:02.336Z,3.10
2023-06-04T09:10:52.792Z,3.40
2023-06-04T09:13:40.969Z,3.60
2023-06-04T09:16:27.986Z,3.28
2023-06-04T09:19:16.076Z,3.65
2023-06-04T09:22:03.921Z,3.38
2023-06-04T09:24:51.268Z,3.40
2023-06-04T09:27:40.579Z,3.20
2023-06-04T09:30:27.493Z,3.08
2023-06-04T09:33:14.553Z,3.75
2023-06-04T09:36:01.500Z,3.70
2023-06-04T09:38:48.889Z,3.65
2023-06-04T09:41:35.954Z,3.20
2023-06-04T09:44:23.024Z,3.65
2023-06-04T09:47:09.879Z,3.85
2023-06-04T09:49:56.745Z,3.30
2023-06-04T09:52:43.609Z,3.55
2023-06-04T09:55:30.552Z,3.75
2023-06-04T09:58:19.451Z,3.28
2023-06-04T10:01:07.653Z,3.60
2023-06-04T10:03:56.030Z,3.60
2023-06-04T10:06:44.043Z,3.13
2023-06-04T10:09:33.324Z,3.42
2023-06-04T10:12:26.801Z,2.90
2023-06-04T10:15:14.839Z,3.95
2023-06-04T10:18:03.915Z,3.80
2023-06-04T10:20:51.315Z,3.33
2023-06-04T10:23:38.870Z,3.38
2023-06-04T10:26:26.954Z,4.20
2023-06-04T10:29:15.536Z,3.40
2023-06-04T10:32:02.543Z,4.07
2023-06-04T10:34:50.661Z,4.53
2023-06-04T10:37:37.720Z,3.65
2023-06-04T10:40:33.845Z,3.70
2023-06-04T10:43:21.690Z,4.35
2023-06-04T10:46:16.596Z,3.55
2023-06-04T10:49:03.501Z,3.95
2023-06-04T10:51:52.292Z,3.92
2023-06-04T10:54:40.382Z,3.65
2023-06-04T10:57:27.256Z,3.78
2023-06-04T11:00:15.612Z,3.67
2023-06-04T11:03:02.739Z,3.97
2023-06-04T11:05:51.510Z,4.13
2023-06-04T11:08:41.560Z,3.92
2023-06-04T11:11:28.449Z,4.45
2023-06-04T11:14:18.862Z,4.50
2023-06-04T11:17:13.320Z,4.93
2023-06-04T11:20:01.479Z,4.15
2023-06-04T11:22:53.271Z,4.18
2023-06-04T11:25:40.570Z,3.72
2023-06-04T11:28:28.177Z,5.18
2023-06-04T11:31:15.147Z,4.18
2023-06-04T11:34:02.190Z,4.60
2023-06-04T11:36:50.756Z,4.10
2023-06-04T11:39:40.588Z,3.60
2023-06-04T11:42:30.537Z,3.75
2023-06-04T11:45:21.910Z,3.90
2023-06-04T11:48:12.218Z,4.65
2023-06-04T11:51:00.104Z,4.88
2023-06-04T11:53:47.039Z,4.32
2023-06-04T11:56:33.958Z,4.32
2023-06-04T11:59:21.265Z,4.38
2023-06-04T12:02:09.122Z,4.35
2023-06-04T12:04:56.110Z,4.63
2023-06-04T12:07:43.009Z,4.70
2023-06-04T12:10:29.903Z,3.80
2023-06-04T12:13:16.860Z,4.53
2023-06-04T12:16:03.769Z,4.13
2023-06-04T12:18:52.038Z,4.15
2023-06-04T12:21:40.719Z,4.22
2023-06-04T12:24:27.627Z,3.92
2023-06-04T12:27:14.575Z,4.28
2023-06-04T12:30:04.016Z,3.88
2023-06-04T12:32:51.928Z,4.22
2023-06-04T12:35:38.972Z,3.95
2023-06-04T12:38:25.959Z,3.65
2023-06-04T12:41:12.888Z,3.58
2023-06-04T12:44:00.574Z,4.10
2023-06-04T12:46:48.248Z,4.05
2023-06-04T12:49:35.604Z,3.80
2023-06-04T12:52:22.474Z,3.78
2023-06-04T12:55:10.184Z,4.10
2023-06-04T12:57:57.099Z,4.53
2023-06-04T13:00:44.028Z,3.58
2023-06-04T13:03:31.697Z,3.75
2023-06-04T13:06:18.735Z,3.60
2023-06-04T13:09:12.831Z,3.40
2023-06-04T13:11:59.745Z,3.85
2023-06-04T13:14:46.605Z,3.85
2023-06-04T13:17:34.395Z,3.90
2023-06-04T13:20:21.402Z,3.85
2023-06-04T13:23:08.729Z,3.90
2023-06-04T13:25:55.631Z,3.58
2023-06-04T13:28:42.486Z,4.15
2023-06-04T13:31:29.437Z,3.55
2023-06-04T13:37:12.111Z,4.22
2023-06-04T13:39:59.500Z,4.38
2023-06-04T13:42:47.101Z,4.70
2023-06-04T13:45:34.247Z,5.25
2023-06-04T13:48:21.719Z,4.90
2023-06-04T13:51:08.885Z,4.85
2023-06-04T13:53:56.014Z,4.68
2023-06-04T13:56:50.511Z,5.45
2023-06-04T13:59:37.337Z,4.15
2023-06-04T14:02:24.287Z,4.22
2023-06-04T14:05:11.311Z,4.85
2023-06-04T14:07:59.187Z,4.50
2023-06-04T14:10:46.170Z,5.20
2023-06-04T14:13:33.031Z,4.07
2023-06-04T14:16:19.969Z,4.28
2023-06-04T14:19:10.000Z,4.13
2023-06-04T14:21:56.893Z,4.72
2023-06-04T14:24:43.786Z,3.75
2023-06-04T14:27:31.012Z,4.43
2023-06-04T14:30:17.908Z,4.47
2023-06-04T14:33:04.931Z,4.82
2023-06-04T14:35:51.898Z,5.43
2023-06-04T14:38:38.773Z,5.32
2023-06-04T14:41:28.221Z,4.13
2023-06-04T14:44:15.082Z,4.88
2023-06-04T14:47:01.929Z,4.68
2023-06-04T14:49:48.875Z,5.22
2023-06-04T14:52:35.737Z,5.00
2023-06-04T14:55:22.739Z,4.93
2023-06-04T14:58:09.623Z,5.45
2023-06-04T15:01:01.633Z,5.07
2023-06-04T15:03:48.985Z,4.55
2023-06-04T15:06:36.279Z,4.90
2023-06-04T15:09:23.209Z,4.78
2023-06-04T15:12:10.121Z,4.07
2023-06-04T15:14:57.011Z,4.60
2023-06-04T15:17:46.290Z,5.10
2023-06-04T15:20:34.931Z,4.72
2023-06-04T15:23:21.846Z,4.28
2023-06-04T15:26:08.738Z,4.80
2023-06-04T15:28:57.354Z,5.13
2023-06-04T15:31:44.598Z,4.85
2023-06-04T15:34:31.466Z,4.85
2023-06-04T15:37:18.423Z,4.78
2023-06-04T15:40:08.520Z,5.55
2023-06-04T15:42:55.483Z,4.78
2023-06-04T15:45:42.504Z,4.55
2023-06-04T15:48:30.381Z,6.07
2023-06-04T15:51:17.271Z,5.65
2023-06-04T15:54:05.503Z,5.20
2023-06-04T15:56:52.404Z,4.60
2023-06-04T15:59:39.334Z,6.20
2023-06-04T16:02:27.539Z,6.05
2023-06-04T16:05:14.550Z,5.22
2023-06-04T16:08:01.605Z,5.35
2023-06-04T16:10:48.644Z,5.40
2023-06-04T16:13:35.625Z,5.40
2023-06-04T16:16:22.645Z,4.78
2023-06-04T16:19:09.617Z,5.30
2023-06-04T16:21:56.901Z,5.82
2023-06-04T16:24:43.711Z,5.68
2023-06-04T16:27:30.658Z,5.47
2023-06-04T16:30:17.503Z,5.85
2023-06-04T16:33:06.867Z,5.85
2023-06-04T16:35:53.782Z,5.60
2023-06-04T16:38:40.827Z,6.03
2023-06-04T16:41:27.936Z,5.13
2023-06-04T16:44:15.117Z,5.65
2023-06-04T16:47:02.008Z,5.50
2023-06-04T16:49:49.358Z,5.45
2023-06-04T16:52:36.800Z,6.00
2023-06-04T16:55:32.471Z,5.95
2023-06-04T16:58:19.344Z,5.38
2023-06-04T17:01:09.492Z,6.43
2023-06-04T17:03:56.526Z,5.82
2023-06-04T17:06:46.429Z,5.22
2023-06-04T17:09:33.736Z,5.10
2023-06-04T17:12:20.725Z,6.32
2023-06-04T17:15:08.032Z,5.05
2023-06-04T17:18:01.479Z,5.45
2023-06-04T17:20:48.907Z,5.85
2023-06-04T17:23:37.627Z,5.38
2023-06-04T17:26:24.994Z,6.72
2023-06-04T17:29:11.917Z,6.82
2023-06-04T17:31:58.768Z,6.38
2023-06-04T17:34:50.553Z,6.90
2023-06-04T17:37:37.890Z,6.83
2023-06-04T17:40:27.300Z,6.72
2023-06-04T17:43:14.657Z,6.28
2023-06-04T17:46:01.661Z,6.18
2023-06-04T17:48:48.575Z,6.60
2023-06-04T17:51:35.535Z,6.95
2023-06-04T17:54:22.410Z,7.47
2023-06-04T17:57:09.337Z,6.68
2023-06-04T17:59:59.062Z,6.68
2023-06-04T18:02:46.733Z,7.03
2023-06-04T18:05:33.676Z,6.53
2023-06-04T18:08:20.770Z,6.22
2023-06-04T18:11:07.955Z,6.82
2023-06-04T18:13:54.972Z,6.30
2023-06-04T18:16:41.942Z,7.13
2023-06-04T18:19:28.946Z,7.55
2023-06-04T18:22:16.154Z,6.57
2023-06-04T18:25:03.302Z,6.47
2023-06-04T18:27:50.317Z,7.25
2023-06-04T18:30:37.323Z,7.07
2023-06-04T18:33:25.922Z,6.28
2023-06-04T18:36:12.821Z,6.43
2023-06-04T18:38:59.948Z,6.82
2023-06-04T18:41:49.010Z,6.72
2023-06-04T18:44:36.280Z,7.47
2023-06-04T18:47:23.663Z,7.10
2023-06-04T18:50:10.903Z,6.38
2023-06-04T18:52:59.079Z,6.95
2023-06-04T18:55:47.297Z,6.57
2023-06-04T18:58:34.296Z,6.20
2023-06-04T19:01:21.202Z,6.28
2023-06-04T19:04:08.857Z,6.72
2023-06-04T19:06:55.810Z,6.07
2023-06-04T19:09:43.028Z,6.30
2023-06-04T19:12:29.938Z,5.35
2023-06-04T19:15:18.147Z,6.28
2023-06-04T19:18:06.222Z,5.57
2023-06-04T19:20:53.163Z,5.88
2023-06-04T19:23:40.039Z,6.32
2023-06-04T19:26:27.139Z,6.28
2023-06-04T19:29:14.005Z,5.75
2023-06-04T19:32:01.171Z,5.95
2023-06-04T19:34:49.974Z,5.85
2023-06-04T19:37:37.033Z,6.35
2023-06-04T19:40:24.014Z,6.10
2023-06-04T19:43:11.179Z,5.22
2023-06-04T19:46:02.570Z,6.03
2023-06-04T19:48:49.539Z,5.65
2023-06-04T19:51:37.426Z,5.88
2023-06-04T19:54:24.389Z,5.20
2023-06-04T19:57:11.508Z,5.40
2023-06-04T19:59:58.511Z,5.75
2023-06-04T20:02:45.527Z,6.05
2023-06-04T20:05:32.433Z,5.30
2023-06-04T20:08:19.338Z,5.50
2023-06-04T20:11:06.618Z,5.40
2023-06-04T20:13:53.490Z,5.63
2023-06-04T20:16:40.907Z,5.03
2023-06-04T20:19:27.907Z,5.28
2023-06-04T20:22:14.828Z,5.32
2023-06-04T20:25:13.938Z,5.30
2023-06-04T20:28:01.026Z,5.90
2023-06-04T20:30:47.932Z,4.63
2023-06-04T20:33:34.947Z,5.15
2023-06-04T20:36:22.758Z,5.43
2023-06-04T20:39:09.844Z,5.28
2023-06-04T20:41:57.267Z,6.07
2023-06-04T20:44:44.243Z,5.45
2023-06-04T20:47:31.267Z,5.20
2023-06-04T20:50:18.159Z,5.43
2023-06-04T20:53:05.044Z,5.00
2023-06-04T20:55:52.004Z,4.40
2023-06-04T20:58:39.029Z,5.22
2023-06-04T21:01:26.214Z,5.30
2023-06-04T21:04:13.237Z,4.78
2023-06-04T21:07:00.247Z,5.35
2023-06-04T21:09:47.188Z,4.82
2023-06-04T21:12:34.064Z,5.60
2023-06-04T21:15:20.916Z,5.10
2023-06-04T21:18:07.913Z,5.55
2023-06-04T21:20:55.242Z,5.55
2023-06-04T21:23:42.198Z,5.35
2023-06-04T21:26:29.612Z,5.28
2023-06-04T21:29:16.588Z,4.72
2023-06-04T21:32:03.622Z,5.32
2023-06-04T21:34:50.767Z,5.72
2023-06-04T21:37:37.664Z,5.00
2023-06-04T21:40:24.850Z,5.63
2023-06-04T21:43:11.873Z,5.88
2023-06-04T21:45:59.235Z,4.97
2023-06-04T21:48:46.519Z,5.63
2023-06-04T21:51:33.456Z,4.78
2023-06-04T21:54:20.371Z,5.18
2023-06-04T21:57:07.269Z,4.60
2023-06-04T21:59:54.167Z,5.03
2023-06-04T22:02:41.180Z,5.10
2023-06-04T22:05:28.155Z,5.45
2023-06-04T22:08:15.063Z,6.07
2023-06-04T22:11:01.987Z,5.60
2023-06-04T22:13:49.051Z,5.22
2023-06-04T22:16:35.949Z,5.72
2023-06-04T22:19:22.890Z,5.07
2023-06-04T22:22:09.833Z,4.93
2023-06-04T22:24:56.844Z,6.13
2023-06-04T22:27:43.719Z,6.32
2023-06-04T22:30:30.687Z,6.13
2023-06-04T22:33:17.694Z,5.53
2023-06-04T22:36:04.736Z,6.30
2023-06-04T22:38:51.769Z,6.43
2023-06-04T22:41:38.807Z,5.68
2023-06-04T22:44:25.676Z,5.95
2023-06-04T22:47:12.555Z,5.20
2023-06-04T22:49:59.430Z,5.15
2023-06-04T22:52:46.306Z,4.82
2023-06-04T22:55:33.285Z,5.65
2023-06-04T22:58:20.519Z,6.05
2023-06-04T23:01:07.579Z,4.82
2023-06-04T23:03:54.751Z,6.40
2023-06-04T23:06:41.757Z,6.05
2023-06-04T23:09:28.631Z,5.20
2023-06-04T23:12:15.759Z,5.35
2023-06-04T23:15:03.245Z,5.85
2023-06-04T23:17:50.843Z,5.20
2023-06-04T23:20:37.853Z,5.43
2023-06-04T23:23:24.774Z,5.22
2023-06-04T23:26:11.675Z,5.65
2023-06-04T23:28:58.548Z,5.50
2023-06-04T23:31:46.019Z,5.45
2023-06-04T23:34:32.938Z,4.82
2023-06-04T23:37:19.848Z,5.72
2023-06-04T23:40:07.731Z,5.43
2023-06-04T23:42:54.597Z,5.57
2023-06-04T23:45:41.441Z,5.45
2023-06-04T23:48:28.324Z,5.68
2023-06-04T23:51:15.242Z,5.97
2023-06-04T23:54:02.142Z,5.70
2023-06-04T23:56:50.805Z,5.03
2023-06-04T23:59:37.717Z,5.20
